createdAt,value
2016-12-23T00:00:02.613Z,5.45
2016-12-23T00:01:17.342Z,5.44
2016-12-23T00:02:32.255Z,5.46
2016-12-23T00:03:47.417Z,5.46
2016-12-23T00:05:02.020Z,5.46
2016-12-23T00:06:17.526Z,5.45
2016-12-23T00:07:33.708Z,5.45
2016-12-23T00:08:48.182Z,5.46
2016-12-23T00:10:03.231Z,5.44
2016-12-23T00:11:17.743Z,5.43
2016-12-23T00:12:32.736Z,5.45
2016-12-23T00:13:47.455Z,5.49
2016-12-23T00:15:02.281Z,5.51
2016-12-23T00:16:17.294Z,5.54
2016-12-23T00:17:31.834Z,5.55
2016-12-23T00:18:46.080Z,5.58
2016-12-23T00:20:00.497Z,5.59
2016-12-23T00:21:15.071Z,5.61
2016-12-23T00:22:30.714Z,5.62
2016-12-23T00:23:45.762Z,5.64
2016-12-23T00:25:00.627Z,5.65
2016-12-23T00:26:15.253Z,5.65
2016-12-23T00:27:30.186Z,5.63
2016-12-23T00:28:44.887Z,5.61
2016-12-23T00:29:59.920Z,5.6
2016-12-23T00:31:15.539Z,5.58
2016-12-23T00:32:31.680Z,5.58
2016-12-23T00:33:46.483Z,5.55
2016-12-23T00:35:01.801Z,5.52
2016-12-23T00:36:16.322Z,5.49
2016-12-23T00:37:30.586Z,5.47
2016-12-23T00:38:46.115Z,5.47
2016-12-23T00:40:00.985Z,5.45
2016-12-23T00:41:16.403Z,5.43
2016-12-23T00:42:30.821Z,5.43
2016-12-23T00:43:45.401Z,5.42
2016-12-23T00:45:00.521Z,5.41
2016-12-23T00:46:15.502Z,5.4
2016-12-23T00:47:30.295Z,5.39
2016-12-23T00:48:59.702Z,5.36
2016-12-23T00:50:14.145Z,5.35
2016-12-23T00:51:31.250Z,5.33
2016-12-23T00:52:46.349Z,5.33
2016-12-23T00:54:01.410Z,5.33
2016-12-23T00:55:16.101Z,5.35
2016-12-23T00:56:30.624Z,5.35
2016-12-23T00:57:45.607Z,5.35
2016-12-23T00:59:00.718Z,5.35
2016-12-23T01:00:15.178Z,5.37
2016-12-23T01:01:31.303Z,5.38
2016-12-23T01:03:01.892Z,5.39
2016-12-23T01:04:19.441Z,5.42
2016-12-23T01:05:35.148Z,5.43
2016-12-23T01:06:51.896Z,5.42
2016-12-23T01:08:05.984Z,5.42
2016-12-23T01:09:20.097Z,5.42
2016-12-23T01:10:34.798Z,5.39
2016-12-23T01:11:50.498Z,5.39
2016-12-23T01:13:06.636Z,5.4
2016-12-23T01:14:23.523Z,5.41
2016-12-23T01:15:58.278Z,5.42
2016-12-23T01:17:19.201Z,5.46
2016-12-23T01:18:35.977Z,5.48
2016-12-23T01:19:58.858Z,5.5
2016-12-23T01:21:16.986Z,5.52
2016-12-23T01:22:37.238Z,5.51
2016-12-23T01:23:57.434Z,5.51
2016-12-23T01:25:12.620Z,5.51
2016-12-23T01:26:27.461Z,5.53
2016-12-23T01:27:43.116Z,5.55
2016-12-23T01:29:01.295Z,5.57
2016-12-23T01:30:16.476Z,5.59
2016-12-23T01:31:32.143Z,5.62
2016-12-23T01:32:47.118Z,5.63
2016-12-23T01:34:03.387Z,5.62
2016-12-23T01:35:20.067Z,5.62
2016-12-23T01:36:36.471Z,5.6
2016-12-23T01:37:51.941Z,5.63
2016-12-23T01:39:07.151Z,5.64
2016-12-23T01:40:22.779Z,5.66
2016-12-23T01:41:40.883Z,5.67
2016-12-23T01:42:57.273Z,5.66
2016-12-23T01:44:16.009Z,5.63
2016-12-23T01:45:35.851Z,5.65
2016-12-23T01:46:53.122Z,5.67
2016-12-23T01:48:10.915Z,5.67
2016-12-23T01:49:27.689Z,5.69
2016-12-23T01:50:46.091Z,5.72
2016-12-23T01:52:02.806Z,5.75
2016-12-23T01:53:19.609Z,5.77
2016-12-23T01:54:34.698Z,5.81
2016-12-23T01:55:48.780Z,5.8
2016-12-23T01:57:02.888Z,5.8
2016-12-23T01:58:16.941Z,5.8
2016-12-23T01:59:31.485Z,5.79
2016-12-23T02:00:46.212Z,5.8
2016-12-23T02:02:00.335Z,5.81
2016-12-23T02:03:14.811Z,5.79
2016-12-23T02:04:29.123Z,5.76
2016-12-23T02:05:43.807Z,5.75
2016-12-23T02:07:13.423Z,5.75
2016-12-23T02:08:28.219Z,5.74
2016-12-23T02:09:43.297Z,5.74
2016-12-23T02:11:00.184Z,5.78
2016-12-23T02:12:14.326Z,5.79
2016-12-23T02:13:29.612Z,5.81
2016-12-23T02:14:43.733Z,5.8
2016-12-23T02:15:58.111Z,5.81
2016-12-23T02:17:12.709Z,5.84
2016-12-23T02:18:27.098Z,5.87
2016-12-23T02:19:41.310Z,5.9
2016-12-23T02:20:55.610Z,5.91
2016-12-23T02:22:09.921Z,5.93
2016-12-23T02:23:24.646Z,5.91
2016-12-23T02:24:39.450Z,5.91
2016-12-23T02:25:54.453Z,5.9
2016-12-23T02:27:08.980Z,5.91
2016-12-23T02:28:24.076Z,5.93
2016-12-23T02:29:39.438Z,5.93
2016-12-23T02:30:54.484Z,5.93
2016-12-23T02:32:08.811Z,5.94
2016-12-23T02:33:23.557Z,5.92
2016-12-23T02:34:37.975Z,5.91
2016-12-23T02:35:52.458Z,5.9
2016-12-23T02:37:06.579Z,5.91
2016-12-23T02:38:21.359Z,5.91
2016-12-23T02:39:35.534Z,5.94
2016-12-23T02:40:51.113Z,5.97
2016-12-23T02:42:08.073Z,5.97
2016-12-23T02:43:29.742Z,5.95
2016-12-23T02:44:48.169Z,5.93
2016-12-23T02:46:10.265Z,5.91
2016-12-23T02:47:29.300Z,5.89
2016-12-23T02:48:44.971Z,5.87
2016-12-23T02:50:00.150Z,5.83
2016-12-23T02:51:14.629Z,5.82
2016-12-23T02:52:29.361Z,5.8
2016-12-23T02:53:44.164Z,5.77
2016-12-23T02:54:58.701Z,5.78
2016-12-23T02:56:15.591Z,5.8
2016-12-23T02:57:33.266Z,5.84
2016-12-23T02:58:48.254Z,5.87
2016-12-23T03:00:05.338Z,5.89
2016-12-23T03:01:35.535Z,5.91
2016-12-23T03:02:50.220Z,5.9
2016-12-23T03:04:04.822Z,5.91
2016-12-23T03:05:18.884Z,5.92
2016-12-23T03:06:33.811Z,5.92
2016-12-23T03:07:48.604Z,5.91
2016-12-23T03:09:05.103Z,5.9
2016-12-23T03:10:19.603Z,5.9
2016-12-23T03:11:34.238Z,5.91
2016-12-23T03:12:48.621Z,5.92
2016-12-23T03:14:04.620Z,5.93
2016-12-23T03:15:25.646Z,5.93
2016-12-23T03:16:46.150Z,5.96
2016-12-23T03:18:04.577Z,5.98
2016-12-23T03:19:18.648Z,5.98
2016-12-23T03:20:33.079Z,5.98
2016-12-23T03:21:53.829Z,5.98
2016-12-23T03:23:15.157Z,5.98
2016-12-23T03:24:30.608Z,5.97
2016-12-23T03:25:45.108Z,5.96
2016-12-23T03:26:59.787Z,5.98
2016-12-23T03:28:14.592Z,5.99
2016-12-23T03:29:31.254Z,6.03
2016-12-23T03:30:46.227Z,6.03
2016-12-23T03:32:00.507Z,6.01
2016-12-23T03:33:15.683Z,5.99
2016-12-23T03:34:30.883Z,5.96
2016-12-23T03:35:45.252Z,5.93
2016-12-23T03:36:59.466Z,5.92
2016-12-23T03:38:14.521Z,5.92
2016-12-23T03:39:35.456Z,5.92
2016-12-23T03:40:50.208Z,5.93
2016-12-23T03:42:04.488Z,5.94
2016-12-23T03:43:18.719Z,5.96
2016-12-23T03:44:33.168Z,5.98
2016-12-23T03:45:47.544Z,6.01
2016-12-23T03:47:02.738Z,6.02
2016-12-23T03:48:17.321Z,6.02
2016-12-23T03:49:31.935Z,6.02
2016-12-23T03:50:45.987Z,6.02
2016-12-23T03:52:00.331Z,6.01
2016-12-23T03:53:14.671Z,5.97
2016-12-23T03:54:29.102Z,5.91
2016-12-23T03:55:43.161Z,5.86
2016-12-23T03:56:57.942Z,5.82
2016-12-23T03:58:12.765Z,5.8
2016-12-23T03:59:27.448Z,5.81
2016-12-23T04:00:41.504Z,5.82
2016-12-23T04:01:55.900Z,5.85
2016-12-23T04:03:10.228Z,5.85
2016-12-23T04:04:24.325Z,5.86
2016-12-23T04:05:38.961Z,5.87
2016-12-23T04:06:54.479Z,5.89
2016-12-23T04:08:08.986Z,5.89
2016-12-23T04:09:23.179Z,5.93
2016-12-23T04:10:37.559Z,5.94
2016-12-23T04:11:52.174Z,5.96
2016-12-23T04:13:06.259Z,5.99
2016-12-23T04:14:35.080Z,6
2016-12-23T04:15:49.184Z,6.02
2016-12-23T04:17:03.902Z,6.05
2016-12-23T04:18:18.567Z,6.06
2016-12-23T04:19:32.793Z,6.06
2016-12-23T04:20:46.879Z,6.05
2016-12-23T04:22:01.248Z,6.05
2016-12-23T04:23:16.579Z,6.06
2016-12-23T04:24:31.030Z,6.05
2016-12-23T04:25:59.863Z,6.04
2016-12-23T04:27:14.000Z,6.04
2016-12-23T04:28:29.319Z,6.05
2016-12-23T04:29:43.478Z,6.04
2016-12-23T04:30:58.128Z,6.02
2016-12-23T04:32:12.669Z,6.02
2016-12-23T04:33:27.399Z,6.01
2016-12-23T04:34:42.064Z,6
2016-12-23T04:35:56.354Z,6.02
2016-12-23T04:37:10.917Z,6.03
2016-12-23T04:38:25.685Z,6.02
2016-12-23T04:39:40.501Z,6.04
2016-12-23T04:40:55.453Z,6.04
2016-12-23T04:42:09.825Z,6.02
2016-12-23T04:43:24.217Z,6.04
2016-12-23T04:44:39.149Z,6.04
2016-12-23T04:45:55.098Z,6.03
2016-12-23T04:47:19.527Z,6.03
2016-12-23T04:48:41.189Z,6.03
2016-12-23T04:49:55.454Z,6.04
2016-12-23T04:51:12.261Z,6.01
2016-12-23T04:52:34.891Z,5.99
2016-12-23T04:53:52.523Z,5.97
2016-12-23T04:55:06.863Z,5.95
2016-12-23T04:56:21.159Z,5.93
2016-12-23T04:57:35.593Z,5.93
2016-12-23T04:58:49.974Z,5.93
2016-12-23T05:00:04.500Z,5.91
2016-12-23T05:01:19.581Z,5.89
2016-12-23T05:02:33.839Z,5.86
2016-12-23T05:03:48.506Z,5.84
2016-12-23T05:05:03.300Z,5.84
2016-12-23T05:06:17.939Z,5.82
2016-12-23T05:07:32.080Z,5.81
2016-12-23T05:08:46.541Z,5.79
2016-12-23T05:10:01.463Z,5.78
2016-12-23T05:11:15.690Z,5.79
2016-12-23T05:12:30.241Z,5.79
2016-12-23T05:13:44.897Z,5.78
2016-12-23T05:14:58.932Z,5.78
2016-12-23T05:16:13.235Z,5.79
2016-12-23T05:17:27.537Z,5.8
2016-12-23T05:18:42.397Z,5.81
2016-12-23T05:19:56.703Z,5.81
2016-12-23T05:21:11.108Z,5.8
2016-12-23T05:22:27.136Z,5.78
2016-12-23T05:23:42.096Z,5.78
2016-12-23T05:24:57.490Z,5.77
2016-12-23T05:26:12.674Z,5.79
2016-12-23T05:27:30.893Z,5.79
2016-12-23T05:28:47.761Z,5.81
2016-12-23T05:30:02.940Z,5.81
2016-12-23T05:31:18.851Z,5.79
2016-12-23T05:32:33.676Z,5.75
2016-12-23T05:33:57.486Z,5.74
2016-12-23T05:35:35.962Z,5.75
2016-12-23T05:36:57.001Z,5.75
2016-12-23T05:38:13.031Z,5.75
2016-12-23T05:39:35.845Z,5.77
2016-12-23T05:42:48.534Z,5.83
2016-12-23T05:44:24.689Z,5.87
2016-12-23T05:45:46.773Z,5.89
2016-12-23T05:47:20.969Z,5.91
2016-12-23T05:48:38.143Z,5.91
2016-12-23T05:49:57.332Z,5.92
2016-12-23T05:51:15.040Z,5.94
2016-12-23T05:52:34.767Z,5.95
2016-12-23T05:53:52.741Z,5.98
2016-12-23T05:55:11.939Z,6.03
2016-12-23T05:56:31.886Z,6.05
2016-12-23T05:57:54.436Z,6.08
2016-12-23T05:59:16.861Z,6.08
2016-12-23T06:00:37.822Z,6.12
2016-12-23T06:01:57.825Z,6.14
2016-12-23T06:03:21.504Z,6.16
2016-12-23T06:04:42.964Z,6.17
2016-12-23T06:06:06.382Z,6.18
2016-12-23T06:07:28.086Z,6.18
2016-12-23T06:08:52.726Z,6.18
2016-12-23T06:10:15.203Z,6.18
2016-12-23T06:11:37.746Z,6.19
2016-12-23T06:12:59.033Z,6.19
2016-12-23T06:14:34.403Z,6.19
2016-12-23T06:15:57.374Z,6.17
2016-12-23T06:17:15.894Z,6.17
2016-12-23T06:18:37.426Z,6.13
2016-12-23T06:19:58.973Z,6.12
2016-12-23T06:21:19.585Z,6.08
2016-12-23T06:22:33.742Z,6.06
2016-12-23T06:23:50.225Z,6.07
2016-12-23T06:25:12.259Z,6.06
2016-12-23T06:26:26.348Z,6.08
2016-12-23T06:27:42.122Z,6.11
2016-12-23T06:28:56.240Z,6.14
2016-12-23T06:30:10.890Z,6.16
2016-12-23T06:31:25.382Z,6.19
2016-12-23T06:32:39.710Z,6.22
2016-12-23T06:33:53.820Z,6.24
2016-12-23T06:35:07.959Z,6.26
2016-12-23T06:36:22.836Z,6.27
2016-12-23T06:37:38.277Z,6.27
2016-12-23T06:38:54.029Z,6.29
2016-12-23T06:40:12.014Z,6.28
2016-12-23T06:41:28.335Z,6.3
2016-12-23T06:42:47.297Z,6.33
2016-12-23T06:44:02.261Z,6.34
2016-12-23T06:45:17.057Z,6.34
2016-12-23T06:46:32.052Z,6.33
2016-12-23T06:47:47.305Z,6.31
2016-12-23T06:49:18.775Z,6.3
2016-12-23T06:50:38.278Z,6.29
2016-12-23T06:51:55.142Z,6.3
2016-12-23T06:53:10.296Z,6.32
2016-12-23T06:54:26.244Z,6.34
2016-12-23T06:55:45.368Z,6.35
2016-12-23T06:57:02.438Z,6.37
2016-12-23T06:58:17.546Z,6.41
2016-12-23T06:59:33.226Z,6.44
2016-12-23T07:00:48.621Z,6.47
2016-12-23T07:02:04.417Z,6.47
2016-12-23T07:03:18.748Z,6.48
2016-12-23T07:04:33.899Z,6.48
2016-12-23T07:05:48.747Z,6.45
2016-12-23T07:07:04.115Z,6.43
2016-12-23T07:08:18.967Z,6.38
2016-12-23T07:09:33.622Z,6.33
2016-12-23T07:10:47.876Z,6.28
2016-12-23T07:12:02.260Z,6.21
2016-12-23T07:13:17.693Z,6.13
2016-12-23T07:14:32.363Z,6.09
2016-12-23T07:15:47.646Z,6.07
2016-12-23T07:17:03.619Z,6.05
2016-12-23T07:18:35.824Z,6.06
2016-12-23T07:19:51.874Z,6.07
2016-12-23T07:21:08.128Z,6.09
2016-12-23T07:22:25.747Z,6.1
2016-12-23T07:23:41.390Z,6.12
2016-12-23T07:24:57.144Z,6.14
2016-12-23T07:26:14.092Z,6.14
2016-12-23T07:27:30.716Z,6.13
2016-12-23T07:28:51.868Z,6.12
2016-12-23T07:31:42.737Z,6.13
2016-12-23T07:32:58.160Z,6.15
2016-12-23T07:34:14.227Z,6.16
2016-12-23T07:35:32.973Z,6.2
2016-12-23T07:36:52.794Z,6.23
2016-12-23T07:38:12.216Z,6.25
2016-12-23T07:39:30.877Z,6.28
2016-12-23T07:41:04.219Z,6.3
2016-12-23T07:42:20.305Z,6.31
2016-12-23T07:43:40.698Z,6.32
2016-12-23T07:44:58.982Z,6.29
2016-12-23T07:46:16.607Z,6.24
2016-12-23T07:47:47.817Z,6.19
2016-12-23T07:49:19.127Z,6.17
2016-12-23T07:50:52.526Z,6.18
2016-12-23T07:52:07.987Z,6.2
2016-12-23T07:53:25.653Z,6.25
2016-12-23T07:54:42.777Z,6.25
2016-12-23T07:55:58.377Z,6.27
2016-12-23T07:57:28.943Z,6.31
2016-12-23T07:58:43.709Z,6.36
2016-12-23T07:59:59.104Z,6.42
2016-12-23T08:01:15.056Z,6.47
2016-12-23T08:02:29.632Z,6.49
2016-12-23T08:03:44.155Z,6.49
2016-12-23T08:04:58.318Z,6.52
2016-12-23T08:06:13.411Z,6.54
2016-12-23T08:07:27.969Z,6.54
2016-12-23T08:08:42.162Z,6.55
2016-12-23T08:09:56.306Z,6.58
2016-12-23T08:11:10.522Z,6.61
2016-12-23T08:12:25.280Z,6.64
2016-12-23T08:13:39.814Z,6.67
2016-12-23T08:14:54.530Z,6.7
2016-12-23T08:16:10.398Z,6.73
2016-12-23T08:17:26.133Z,6.72
2016-12-23T08:18:41.802Z,6.7
2016-12-23T08:19:56.510Z,6.68
2016-12-23T08:21:11.896Z,6.64
2016-12-23T08:22:42.487Z,6.59
2016-12-23T08:23:58.315Z,6.54
2016-12-23T08:25:15.606Z,6.53
2016-12-23T08:26:30.836Z,6.52
2016-12-23T08:27:45.810Z,6.55
2016-12-23T08:29:00.524Z,6.58
2016-12-23T08:30:16.336Z,6.64
2016-12-23T08:31:31.382Z,6.66
2016-12-23T08:32:46.238Z,6.69
2016-12-23T08:34:00.868Z,6.74
2016-12-23T08:35:15.607Z,6.76
2016-12-23T08:36:30.337Z,6.76
2016-12-23T08:37:45.378Z,6.78
2016-12-23T08:39:00.279Z,6.78
2016-12-23T08:40:14.747Z,6.83
2016-12-23T08:41:30.205Z,6.84
2016-12-23T08:42:47.578Z,6.88
2016-12-23T08:44:05.918Z,6.9
2016-12-23T08:45:21.268Z,6.94
2016-12-23T08:46:35.884Z,6.95
2016-12-23T08:47:50.898Z,6.98
2016-12-23T08:49:08.799Z,6.99
2016-12-23T08:50:23.355Z,7.01
2016-12-23T08:51:37.788Z,7.02
2016-12-23T08:52:51.998Z,7.02
2016-12-23T08:54:06.270Z,6.99
2016-12-23T08:55:20.674Z,7.02
2016-12-23T08:56:35.342Z,7.02
2016-12-23T08:57:49.705Z,7.03
2016-12-23T08:59:05.257Z,7.05
2016-12-23T09:00:23.235Z,7.07
2016-12-23T09:01:38.947Z,7.1
2016-12-23T09:03:09.529Z,7.17
2016-12-23T09:04:25.655Z,7.27
2016-12-23T09:05:40.222Z,7.38
2016-12-23T09:06:57.043Z,7.48
2016-12-23T09:08:15.570Z,7.53
2016-12-23T09:09:30.773Z,7.59
2016-12-23T09:10:45.558Z,7.6
2016-12-23T09:12:00.692Z,7.64
2016-12-23T09:13:15.228Z,7.64
2016-12-23T09:14:30.118Z,7.65
2016-12-23T09:15:44.952Z,7.68
2016-12-23T09:16:59.113Z,7.7
2016-12-23T09:18:14.254Z,7.74
2016-12-23T09:19:30.020Z,7.78
2016-12-23T09:20:44.418Z,7.81
2016-12-23T09:21:58.481Z,7.83
2016-12-23T09:23:12.843Z,7.84
2016-12-23T09:24:27.204Z,7.84
2016-12-23T09:25:41.592Z,7.81
2016-12-23T09:26:56.457Z,7.77
2016-12-23T09:28:11.253Z,7.72
2016-12-23T09:29:25.482Z,7.71
2016-12-23T09:30:40.377Z,7.69
2016-12-23T09:31:55.269Z,7.68
2016-12-23T09:33:09.364Z,7.68
2016-12-23T09:34:23.893Z,7.69
2016-12-23T09:35:38.402Z,7.7
2016-12-23T09:36:53.675Z,7.71
2016-12-23T09:38:23.406Z,7.73
2016-12-23T09:39:39.993Z,7.74
2016-12-23T09:40:55.327Z,7.76
2016-12-23T09:42:11.741Z,7.75
2016-12-23T09:43:27.972Z,7.73
2016-12-23T09:44:44.364Z,7.7
2016-12-23T09:46:02.238Z,7.68
2016-12-23T09:47:19.470Z,7.65
2016-12-23T09:48:34.658Z,7.62
2016-12-23T09:49:50.149Z,7.6
2016-12-23T09:51:06.149Z,7.6
2016-12-23T09:52:21.114Z,7.63
2016-12-23T09:53:37.507Z,7.61
2016-12-23T09:54:52.880Z,7.62
2016-12-23T09:56:08.187Z,7.6
2016-12-23T09:57:22.707Z,7.61
2016-12-23T09:58:37.458Z,7.61
2016-12-23T09:59:51.574Z,7.6
2016-12-23T10:01:06.769Z,7.59
2016-12-23T10:02:21.246Z,7.59
2016-12-23T10:03:36.011Z,7.61
2016-12-23T10:04:50.204Z,7.62
2016-12-23T10:06:04.593Z,7.6
2016-12-23T10:07:21.666Z,7.6
2016-12-23T10:08:36.813Z,7.57
2016-12-23T10:09:51.204Z,7.57
2016-12-23T10:11:05.894Z,7.57
2016-12-23T10:12:20.250Z,7.58
2016-12-23T10:13:34.792Z,7.59
2016-12-23T10:14:49.731Z,7.59
2016-12-23T10:16:04.219Z,7.6
2016-12-23T10:17:19.034Z,7.64
2016-12-23T10:18:33.540Z,7.67
2016-12-23T10:19:48.031Z,7.69
2016-12-23T10:21:02.419Z,7.74
2016-12-23T10:22:16.806Z,7.76
2016-12-23T10:23:31.011Z,7.8
2016-12-23T10:24:45.454Z,7.84
2016-12-23T10:25:59.571Z,7.86
2016-12-23T10:27:14.653Z,7.88
2016-12-23T10:28:28.767Z,7.86
2016-12-23T10:29:43.320Z,7.84
2016-12-23T10:30:57.931Z,7.83
2016-12-23T10:32:12.008Z,7.83
2016-12-23T10:33:26.916Z,7.81
2016-12-23T10:34:41.794Z,7.8
2016-12-23T10:38:24.343Z,7.78
2016-12-23T10:39:38.631Z,7.79
2016-12-23T10:40:52.716Z,7.8
2016-12-23T10:42:06.862Z,7.8
2016-12-23T10:43:21.246Z,7.83
2016-12-23T10:44:36.062Z,7.86
2016-12-23T10:45:50.439Z,7.9
2016-12-23T10:47:04.976Z,7.93
2016-12-23T10:48:19.550Z,7.98
2016-12-23T10:49:33.880Z,8.01
2016-12-23T10:50:48.936Z,8.05
2016-12-23T10:52:03.232Z,8.07
2016-12-23T10:53:17.362Z,8.08
2016-12-23T10:54:31.537Z,8.08
2016-12-23T10:55:45.988Z,8.06
2016-12-23T10:57:00.214Z,8.06
2016-12-23T10:58:14.810Z,8.08
2016-12-23T10:59:29.267Z,8.1
2016-12-23T11:00:43.884Z,8.11
2016-12-23T11:01:58.830Z,8.12
2016-12-23T11:03:13.038Z,8.12
2016-12-23T11:04:27.702Z,8.12
2016-12-23T11:05:41.774Z,8.09
2016-12-23T11:06:56.614Z,8.07
2016-12-23T11:08:10.861Z,8.02
2016-12-23T11:09:25.130Z,8.03
2016-12-23T11:10:40.294Z,8
2016-12-23T11:11:54.973Z,7.99
2016-12-23T11:13:10.028Z,7.99
2016-12-23T11:14:24.259Z,7.98
2016-12-23T11:15:39.205Z,8
2016-12-23T11:16:54.076Z,8
2016-12-23T11:18:09.311Z,7.98
2016-12-23T11:19:24.575Z,7.99
2016-12-23T11:20:39.158Z,7.99
2016-12-23T11:21:54.101Z,7.98
2016-12-23T11:23:23.459Z,7.99
2016-12-23T11:24:38.108Z,7.99
2016-12-23T11:25:54.856Z,8.01
2016-12-23T11:27:09.270Z,8
2016-12-23T11:28:23.677Z,7.99
2016-12-23T11:29:38.483Z,8.03
2016-12-23T11:30:54.281Z,8.05
2016-12-23T11:32:09.017Z,8.04
2016-12-23T11:33:24.294Z,8.02
2016-12-23T11:34:39.254Z,8
2016-12-23T11:35:54.063Z,8
2016-12-23T11:37:08.489Z,7.98
2016-12-23T11:38:23.075Z,7.93
2016-12-23T11:39:37.765Z,7.86
2016-12-23T11:40:53.193Z,7.83
2016-12-23T11:42:09.079Z,7.77
2016-12-23T11:43:24.156Z,7.78
2016-12-23T11:44:38.940Z,7.77
2016-12-23T11:45:53.552Z,7.76
2016-12-23T11:47:08.895Z,7.77
2016-12-23T11:48:24.170Z,7.79
2016-12-23T11:49:39.181Z,7.8
2016-12-23T11:50:55.139Z,7.8
2016-12-23T11:52:09.862Z,7.82
2016-12-23T11:53:24.942Z,7.84
2016-12-23T11:54:40.148Z,7.84
2016-12-23T11:55:54.810Z,7.83
2016-12-23T11:57:10.075Z,7.78
2016-12-23T11:58:25.999Z,7.74
2016-12-23T11:59:41.353Z,7.68
2016-12-23T12:00:56.940Z,7.65
2016-12-23T12:02:12.352Z,7.63
2016-12-23T12:03:27.307Z,7.64
2016-12-23T12:04:42.234Z,7.67
2016-12-23T12:05:56.990Z,7.68
2016-12-23T12:07:12.214Z,7.68
2016-12-23T12:08:27.284Z,7.68
2016-12-23T12:09:41.410Z,7.69
2016-12-23T12:10:55.971Z,7.7
2016-12-23T12:12:11.000Z,7.7
2016-12-23T12:13:26.151Z,7.71
2016-12-23T12:14:41.486Z,7.71
2016-12-23T12:15:55.926Z,7.71
2016-12-23T12:17:10.701Z,7.7
2016-12-23T12:18:25.284Z,7.71
2016-12-23T12:19:39.786Z,7.74
2016-12-23T12:20:54.214Z,7.73
2016-12-23T12:22:08.905Z,7.75
2016-12-23T12:23:23.434Z,7.78
2016-12-23T12:24:38.246Z,7.79
2016-12-23T12:25:52.987Z,7.82
2016-12-23T12:27:07.272Z,7.83
2016-12-23T12:28:21.898Z,7.88
2016-12-23T12:29:36.005Z,7.9
2016-12-23T12:30:50.871Z,7.92
2016-12-23T12:32:05.401Z,7.92
2016-12-23T12:33:19.902Z,7.93
2016-12-23T12:34:34.067Z,7.91
2016-12-23T12:35:48.564Z,7.88
2016-12-23T12:37:18.183Z,7.85
2016-12-23T12:38:33.653Z,7.82
2016-12-23T12:39:48.132Z,7.81
2016-12-23T12:41:03.676Z,7.8
2016-12-23T12:42:19.256Z,7.77
2016-12-23T12:43:39.674Z,7.74
2016-12-23T12:44:55.468Z,7.72
2016-12-23T12:46:10.224Z,7.71
2016-12-23T12:52:10.550Z,7.76
2016-12-23T12:53:44.815Z,7.76
2016-12-23T12:55:37.541Z,7.76
2016-12-23T12:57:11.748Z,7.76
2016-12-23T12:58:45.526Z,7.76
2016-12-23T13:00:19.258Z,7.75
2016-12-23T13:01:52.987Z,7.74
2016-12-23T13:03:22.341Z,7.74
2016-12-23T13:04:57.704Z,7.79
2016-12-23T13:06:31.242Z,7.81
2016-12-23T13:08:04.985Z,7.81
2016-12-23T13:09:38.850Z,7.83
2016-12-23T13:11:07.376Z,7.83
2016-12-23T13:12:41.209Z,7.84
2016-12-23T13:14:14.966Z,7.88
2016-12-23T13:15:50.605Z,7.92
2016-12-23T13:17:18.959Z,7.96
2016-12-23T13:18:53.128Z,8
2016-12-23T13:20:27.502Z,8.04
2016-12-23T13:22:02.031Z,8.05
2016-12-23T13:23:36.050Z,8.03
2016-12-23T13:25:09.958Z,8.03
2016-12-23T13:26:43.859Z,8.04
2016-12-23T13:28:17.999Z,8.07
2016-12-23T13:29:53.090Z,8.07
2016-12-23T13:31:47.426Z,8.05
2016-12-23T13:33:22.512Z,8.05
2016-12-23T13:34:56.733Z,8.02
2016-12-23T13:36:31.677Z,8.02
2016-12-23T13:38:09.826Z,8.02
2016-12-23T13:40:04.780Z,8.03
2016-12-23T13:41:39.544Z,8.07
2016-12-23T13:43:13.721Z,8.09
2016-12-23T13:44:47.197Z,8.1
2016-12-23T13:46:22.875Z,8.09
2016-12-23T13:47:58.631Z,8.11
2016-12-23T13:49:52.148Z,8.12
2016-12-23T13:51:28.034Z,8.17
2016-12-23T13:53:02.851Z,8.19
2016-12-23T13:54:37.458Z,8.19
2016-12-23T13:56:11.602Z,8.18
2016-12-23T13:57:45.112Z,8.18
2016-12-23T13:59:18.841Z,8.18
2016-12-23T14:00:53.282Z,8.16
2016-12-23T14:02:27.256Z,8.14
2016-12-23T14:04:18.926Z,8.13
2016-12-23T14:05:33.076Z,8.13
2016-12-23T14:07:26.961Z,8.14
2016-12-23T14:09:01.070Z,8.13
2016-12-23T14:10:35.002Z,8.14
2016-12-23T14:12:08.395Z,8.14
2016-12-23T14:13:42.683Z,8.12
2016-12-23T14:15:16.327Z,8.08
2016-12-23T14:16:49.768Z,8.09
2016-12-23T14:18:23.424Z,8.08
2016-12-23T14:19:57.477Z,8.08
2016-12-23T14:21:31.805Z,8.08
2016-12-23T14:23:07.524Z,8.09
2016-12-23T14:24:57.267Z,8.07
2016-12-23T14:26:12.193Z,8.03
2016-12-23T14:27:46.090Z,8
2016-12-23T14:29:39.186Z,8
2016-12-23T14:31:13.765Z,8
2016-12-23T14:32:47.632Z,8.01
2016-12-23T14:34:20.964Z,8.04
2016-12-23T14:35:54.814Z,8.05
2016-12-23T14:37:28.451Z,8.03
2016-12-23T14:39:02.416Z,8.05
2016-12-23T14:40:37.272Z,8.03
2016-12-23T14:42:11.730Z,8.06
2016-12-23T14:43:45.142Z,8.11
2016-12-23T14:45:19.775Z,8.14
2016-12-23T14:46:53.160Z,8.16
2016-12-23T14:48:26.700Z,8.18
2016-12-23T14:49:55.327Z,8.22
2016-12-23T14:51:29.422Z,8.23
2016-12-23T14:53:02.792Z,8.25
2016-12-23T14:54:36.523Z,8.23
2016-12-23T14:56:10.230Z,8.22
2016-12-23T14:57:43.516Z,8.21
2016-12-23T14:59:17.869Z,8.19
2016-12-23T15:00:46.698Z,8.15
2016-12-23T15:02:46.448Z,8.1
2016-12-23T15:04:19.850Z,8.08
2016-12-23T15:05:53.235Z,8.06
2016-12-23T15:07:27.146Z,8.04
2016-12-23T15:09:00.729Z,8.04
2016-12-23T15:10:34.462Z,8.04
2016-12-23T15:12:07.802Z,8.05
2016-12-23T15:13:37.003Z,8.05
2016-12-23T15:15:10.377Z,8.05
2016-12-23T15:16:44.205Z,8.05
2016-12-23T15:18:18.665Z,8.07
2016-12-23T15:19:52.386Z,8.12
2016-12-23T15:21:26.107Z,8.16
2016-12-23T15:22:55.562Z,8.19
2016-12-23T15:24:30.186Z,8.2
2016-12-23T15:26:04.788Z,8.2
2016-12-23T15:27:36.050Z,8.2
2016-12-23T15:29:11.603Z,8.21
2016-12-23T15:30:45.166Z,8.22
2016-12-23T15:32:20.430Z,8.21
2016-12-23T15:34:15.130Z,8.19
2016-12-23T15:35:48.475Z,8.16
2016-12-23T15:37:22.584Z,8.14
2016-12-23T15:38:56.369Z,8.14
2016-12-23T15:40:29.932Z,8.15
2016-12-23T15:42:03.497Z,8.15
2016-12-23T15:43:37.242Z,8.19
2016-12-23T15:45:11.210Z,8.2
2016-12-23T15:46:44.763Z,8.22
2016-12-23T15:48:39.490Z,8.23
2016-12-23T15:49:54.282Z,8.23
2016-12-23T15:51:28.727Z,8.23
2016-12-23T15:53:22.836Z,8.21
2016-12-23T15:54:57.017Z,8.19
2016-12-23T15:56:31.431Z,8.18
2016-12-23T15:58:07.612Z,8.19
2016-12-23T15:59:38.417Z,8.2
2016-12-23T16:01:14.189Z,8.21
2016-12-23T16:02:47.622Z,8.22
2016-12-23T16:04:21.795Z,8.2
2016-12-23T16:05:55.761Z,8.17
2016-12-23T16:07:29.133Z,8.11
2016-12-23T16:09:02.443Z,8.09
2016-12-23T16:10:56.273Z,8.07
2016-12-23T16:12:30.117Z,8.05
2016-12-23T16:14:03.676Z,8.03
2016-12-23T16:15:37.401Z,7.99
2016-12-23T16:17:11.690Z,7.97
2016-12-23T16:18:45.868Z,7.95
2016-12-23T16:20:19.472Z,7.93
2016-12-23T16:21:52.807Z,7.94
2016-12-23T16:23:26.352Z,7.96
2016-12-23T16:25:00.363Z,8.02
2016-12-23T16:26:34.438Z,8.06
2016-12-23T16:28:03.001Z,8.09
2016-12-23T16:29:36.646Z,8.1
2016-12-23T16:31:09.913Z,8.11
2016-12-23T16:33:10.890Z,8.09
2016-12-23T16:34:44.830Z,8.09
2016-12-23T16:36:18.546Z,8.08
2016-12-23T16:37:51.944Z,8.08
2016-12-23T16:39:26.018Z,8.03
2016-12-23T16:41:00.476Z,8
2016-12-23T16:42:34.622Z,8
2016-12-23T16:44:08.255Z,7.99
2016-12-23T16:45:41.655Z,8
2016-12-23T16:47:15.696Z,8.02
2016-12-23T16:48:50.080Z,8.04
2016-12-23T16:50:43.118Z,8.07
2016-12-23T16:52:16.627Z,8.12
2016-12-23T16:53:51.103Z,8.13
2016-12-23T16:55:25.659Z,8.15
2016-12-23T16:56:59.148Z,8.15
2016-12-23T16:58:33.316Z,8.13
2016-12-23T17:00:07.167Z,8.08
2016-12-23T17:01:36.032Z,8.07
2016-12-23T17:03:10.212Z,8.05
2016-12-23T17:04:43.774Z,8.07
2016-12-23T17:06:17.626Z,8.06
2016-12-23T17:10:53.191Z,8
2016-12-23T17:12:27.663Z,8
2016-12-23T17:14:29.197Z,7.98
2016-12-23T17:16:02.739Z,7.97
2016-12-23T17:17:36.148Z,7.99
2016-12-23T17:19:10.288Z,8
2016-12-23T17:20:44.257Z,8.02
2016-12-23T17:22:18.167Z,8.03
2016-12-23T17:23:46.581Z,8.03
2016-12-23T17:25:21.827Z,8.02
2016-12-23T17:26:55.184Z,8
2016-12-23T17:28:29.316Z,7.94
2016-12-23T17:30:06.020Z,7.88
2016-12-23T17:31:40.708Z,7.84
2016-12-23T17:34:45.202Z,7.78
2016-12-23T17:36:18.575Z,7.76
2016-12-23T17:37:52.966Z,7.75
2016-12-23T17:39:26.381Z,7.76
2016-12-23T17:41:22.289Z,7.74
2016-12-23T17:42:55.615Z,7.7
2016-12-23T17:44:30.215Z,7.66
2016-12-23T17:46:03.635Z,7.66
2016-12-23T17:47:37.280Z,7.64
2016-12-23T17:49:12.249Z,7.64
2016-12-23T17:50:41.116Z,7.63
2016-12-23T17:52:14.669Z,7.58
2016-12-23T17:53:47.960Z,7.56
2016-12-23T17:55:22.840Z,7.51
2016-12-23T17:56:57.143Z,7.44
2016-12-23T17:58:33.146Z,7.41
2016-12-23T18:00:07.268Z,7.41
2016-12-23T18:01:40.952Z,7.41
2016-12-23T18:03:09.906Z,7.41
2016-12-23T18:04:43.718Z,7.44
2016-12-23T18:06:17.162Z,7.45
2016-12-23T18:07:50.970Z,7.46
2016-12-23T18:09:25.398Z,7.48
2016-12-23T18:10:59.114Z,7.48
2016-12-23T18:12:53.082Z,7.49
2016-12-23T18:14:27.182Z,7.44
2016-12-23T18:16:01.997Z,7.44
2016-12-23T18:17:35.493Z,7.42
2016-12-23T18:19:09.302Z,7.4